Time;durP1;ratioP1;P1;durP2;ratioP2;P2;SDS_P1;SDS_P2;PMS_P1;PMS_P2;Temp;Humidity;BMP_temperature;BMP_pressure;BME280_temperature;BME280_humidity;BME280_pressure;Samples;Min_cycle;Max_cycle;Signal;HPM_P1;HPM_P2
2022/04/25 00:00:45;;;;;;;;;;;;;;;;;;5043267;28;19952;-79
2022/04/25 00:03:11;;;;;;;;;;;;;;;;;;5054024;28;20361;-80
2022/04/25 00:05:37;;;;;;;;;;;;;;;;;;5038174;28;19955;-80
2022/04/25 00:08:03;;;;;;;;;;;;;;;;;;5050360;28;20443;-80
2022/04/25 00:10:30;;;;;;;;;;;;;;;;;;5048789;28;19925;-80
2022/04/25 00:12:56;;;;;;;;;;;;;;;;;;5065757;28;19967;-81
2022/04/25 00:15:22;;;;;;;;;;;;;;;;;;5050554;28;19987;-79
2022/04/25 00:17:48;;;;;;;;;;;;;;;;;;5047207;28;19912;-80
2022/04/25 00:20:15;;;;;;;;;;;;;;;;;;5072956;28;19923;-80
2022/04/25 00:22:41;;;;;;;;;;;;;;;;;;5042114;28;19963;-80
2022/04/25 00:25:07;;;;;;;;;;;;;;;;;;5033641;28;19963;-79
2022/04/25 00:27:33;;;;;;;;;;;;;;;;;;5038145;28;19960;-80
2022/04/25 00:29:59;;;;;;;;;;;;;;;;;;5046837;28;19936;-79
2022/04/25 00:32:26;;;;;;;;;;;;;;;;;;5049366;28;19964;-79
2022/04/25 00:34:52;;;;;;;;;;;;;;;;;;5047103;28;19929;-80
2022/04/25 00:37:18;;;;;;;;;;;;;;;;;;5029757;28;20010;-79
2022/04/25 00:39:44;;;;;;;;;;;;;;;;;;5032348;28;19963;-80
2022/04/25 00:42:11;;;;;;;;;;;;;;;;;;5059857;28;20002;-80
2022/04/25 00:44:37;;;;;;;;;;;;;;;;;;5039430;28;19953;-79
2022/04/25 00:47:03;;;;;;;;;;;;;;;;;;5055532;28;20018;-80
2022/04/25 00:49:29;;;;;;;;;;;;;;;;;;5057031;28;19952;-80
2022/04/25 00:51:56;;;;;;;;;;;;;;;;;;5068779;28;19952;-80
2022/04/25 00:54:22;;;;;;;;;;;;;;;;;;5048880;28;20377;-79
2022/04/25 00:56:49;;;;;;;;;;;;;;;;;;5038067;28;20337;-80
2022/04/25 00:59:15;;;;;;;;;;;;;;;;;;5053201;28;20372;-80
2022/04/25 01:01:42;;;;;;;;;;;;;;;;;;5050780;28;19960;-80
2022/04/25 01:04:08;;;;;;;;;;;;;;;;;;5045562;28;19960;-80
2022/04/25 01:06:34;;;;;;;;;;;;;;;;;;5053609;28;19955;-79
2022/04/25 01:09:00;;;;;;;;;;;;;;;;;;5050307;28;19920;-81
2022/04/25 01:11:27;;;;;;;;;;;;;;;;;;5048195;28;19959;-81
2022/04/25 01:13:53;;;;;;;;;;;;;;;;;;5050637;28;20503;-80
2022/04/25 01:16:20;;;;;;;;;;;;;;;;;;5023489;28;19974;-80
2022/04/25 01:18:46;;;;;;;;;;;;;;;;;;5064802;28;19959;-80
2022/04/25 01:21:12;;;;;;;;;;;;;;;;;;5054660;28;19948;-80
2022/04/25 01:29:08;;;;;;;;;;;;;;;;;;5048361;28;19959;-80
2022/04/25 01:31:34;;;;;;;;;;;;;;;;;;5053252;28;19944;-80
2022/04/25 01:34:01;;;;;;;;;;;;;;;;;;5046805;28;20010;-80
2022/04/25 01:36:27;;;;;;;;;;;;;;;;;;5036761;28;19916;-82
2022/04/25 01:38:53;;;;;;;;;;;;;;;;;;5048449;28;19962;-79
2022/04/25 01:41:19;;;;;;;;;;;;;;;;;;5041111;28;19960;-78
2022/04/25 01:43:46;;;;;;;;;;;;;;;;;;5054102;28;19969;-78
2022/04/25 01:46:12;;;;;;;;;;;;;;;;;;5038252;28;20376;-81
2022/04/25 01:48:38;;;;;;;;;;;;;;;;;;5047992;28;19959;-81
2022/04/25 01:51:04;;;;;;;;;;;;;;;;;;5034371;28;19975;-81
2022/04/25 01:53:30;;;;;;;;;;;;;;;;;;5051249;28;19964;-81
2022/04/25 01:55:57;;;;;;;;;;;;;;;;;;5051785;28;19967;-80
2022/04/25 01:58:23;;;;;;;;;;;;;;;;;;5046730;28;20341;-80
2022/04/25 02:00:49;;;;;;;;;;;;;;;;;;5042671;28;19945;-81
2022/04/25 02:03:15;;;;;;;;;;;;;;;;;;5042607;28;20400;-80
2022/04/25 02:05:42;;;;;;;;;;;;;;;;;;5044576;28;20387;-79
2022/04/25 02:08:08;;;;;;;;;;;;;;;;;;5034157;28;19960;-79
2022/04/25 02:10:34;;;;;;;;;;;;;;;;;;5044818;28;19952;-79
2022/04/25 02:13:01;;;;;;;;;;;;;;;;;;5048466;28;19953;-79
2022/04/25 02:15:27;;;;;;;;;;;;;;;;;;5057834;28;19960;-79
2022/04/25 02:17:53;;;;;;;;;;;;;;;;;;5040659;28;19939;-79
2022/04/25 02:20:19;;;;;;;;;;;;;;;;;;5025224;28;19952;-79
2022/04/25 02:22:45;;;;;;;;;;;;;;;;;;5041431;28;22251;-79
2022/04/25 02:25:11;;;;;;;;;;;;;;;;;;5042184;28;19959;-79
2022/04/25 02:27:38;;;;;;;;;;;;;;;;;;5052957;28;19975;-78
2022/04/25 02:30:04;;;;;;;;;;;;;;;;;;5047155;28;20005;-79
2022/04/25 02:32:30;;;;;;;;;;;;;;;;;;5052026;28;19943;-79
2022/04/25 02:34:57;;;;;;;;;;;;;;;;;;5040978;28;19968;-78
2022/04/25 02:37:23;;;;;;;;;;;;;;;;;;5053981;28;19971;-78
2022/04/25 02:39:49;;;;;;;;;;;;;;;;;;5049435;28;19951;-79
2022/04/25 02:42:16;;;;;;;;;;;;;;;;;;5033104;28;19952;-79
2022/04/25 02:44:42;;;;;;;;;;;;;;;;;;5049759;28;20392;-80
2022/04/25 02:47:11;;;;;;;;;;;;;;;;;;5052012;28;19940;-80
2022/04/25 02:49:37;;;;;;;;;;;;;;;;;;5044336;28;19975;-81
2022/04/25 02:52:03;;;;;;;;;;;;;;;;;;5049192;28;20077;-80
2022/04/25 02:54:29;;;;;;;;;;;;;;;;;;5051469;28;19952;-80
2022/04/25 02:56:55;;;;;;;;;;;;;;;;;;5046375;28;20498;-79
2022/04/25 02:59:22;;;;;;;;;;;;;;;;;;5060032;28;19947;-80
2022/04/25 03:01:48;;;;;;;;;;;;;;;;;;5046651;28;20396;-81
2022/04/25 03:04:14;;;;;;;;;;;;;;;;;;5045040;28;19978;-80
2022/04/25 03:06:40;;;;;;;;;;;;;;;;;;5050919;28;20102;-81
2022/04/25 03:09:06;;;;;;;;;;;;;;;;;;5039002;28;19956;-79
2022/04/25 03:11:34;;;;;;;;;;;;;;;;;;5036695;28;19964;-79
2022/04/25 03:14:00;;;;;;;;;;;;;;;;;;5044617;28;19971;-78
2022/04/25 03:16:29;;;;;;;;;;;;;;;;;;5025429;28;19963;-79
2022/04/25 03:18:58;;;;;;;;;;;;;;;;;;5036769;28;19917;-79
2022/04/25 03:24:58;;;;;;;;;;;;;;;;;;5005222;28;19932;-78
2022/04/25 03:30:27;;;;;;;;;;;;;;;;;;4850780;29;19946;-81
2022/04/25 03:33:04;;;;;;;;;;;;;;;;;;;;;
2022/04/25 03:36:05;;;;;;;;;;;;;;;;;;4956429;28;19926;-79
2022/04/25 03:39:15;;;;;;;;;;;;;;;;;;4874200;28;20387;-80
2022/04/25 03:41:43;;;;;;;;;;;;;;;;;;4924861;28;19957;-79
2022/04/25 03:44:13;;;;;;;;;;;;;;;;;;4938730;28;19924;-80
2022/04/25 03:53:13;;;;;;;;;;;;;;;;;;4913583;28;19922;-79
2022/04/25 03:58:24;;;;;;;;;;;;;;;;;;5024309;28;20008;-79
2022/04/25 04:00:51;;;;;;;;;;;;;;;;;;5039525;28;20007;-79
2022/04/25 04:03:19;;;;;;;;;;;;;;;;;;5041742;28;19920;-79
2022/04/25 04:05:46;;;;;;;;;;;;;;;;;;5027334;28;19955;-80
2022/04/25 04:08:12;;;;;;;;;;;;;;;;;;5048538;28;19949;-81
2022/04/25 04:10:39;;;;;;;;;;;;;;;;;;5035287;28;20344;-81
2022/04/25 04:13:08;;;;;;;;;;;;;;;;;;5037087;28;19948;-79
2022/04/25 04:15:34;;;;;;;;;;;;;;;;;;5041689;28;20469;-78
2022/04/25 04:18:00;;;;;;;;;;;;;;;;;;5053350;28;20455;-80
2022/04/25 04:20:26;;;;;;;;;;;;;;;;;;5046596;28;19975;-80
2022/04/25 04:22:52;;;;;;;;;;;;;;;;;;5037255;28;19943;-79
2022/04/25 04:25:20;;;;;;;;;;;;;;;;;;5048802;28;19971;-79
2022/04/25 04:27:48;;;;;;;;;;;;;;;;;;5045982;28;20364;-80
2022/04/25 04:30:15;;;;;;;;;;;;;;;;;;5044031;28;20405;-80
2022/04/25 04:32:41;;;;;;;;;;;;;;;;;;5058563;28;19954;-80
2022/04/25 04:35:08;;;;;;;;;;;;;;;;;;5040395;28;19949;-81
2022/04/25 04:37:34;;;;;;;;;;;;;;;;;;5050007;28;19952;-79
2022/04/25 04:42:45;;;;;;;;;;;;;;;;;;5027234;28;20028;-80
2022/04/25 04:45:11;;;;;;;;;;;;;;;;;;5027742;28;20026;-79
2022/04/25 04:47:38;;;;;;;;;;;;;;;;;;5034237;28;19982;-81
2022/04/25 04:50:25;;;;;;;;;;;;;;;;;;5036238;28;19917;-79
2022/04/25 04:52:51;;;;;;;;;;;;;;;;;;5037810;28;20293;-81
2022/04/25 04:55:17;;;;;;;;;;;;;;;;;;5044237;28;19964;-82
2022/04/25 04:57:43;;;;;;;;;;;;;;;;;;5036747;28;19960;-83
2022/04/25 05:00:10;;;;;;;;;;;;;;;;;;5042890;28;19960;-82
2022/04/25 05:02:36;;;;;;;;;;;;;;;;;;5041257;28;20393;-82
2022/04/25 05:05:02;;;;;;;;;;;;;;;;;;5036364;28;19995;-82
2022/04/25 05:07:28;;;;;;;;;;;;;;;;;;5035283;28;19952;-82
2022/04/25 05:09:55;;;;;;;;;;;;;;;;;;5038318;28;19983;-81
2022/04/25 05:12:21;;;;;;;;;;;;;;;;;;5037587;28;19972;-81
2022/04/25 05:14:47;;;;;;;;;;;;;;;;;;5038539;28;19953;-82
2022/04/25 05:17:13;;;;;;;;;;;;;;;;;;5049054;28;19944;-81
2022/04/25 05:19:39;;;;;;;;;;;;;;;;;;5040749;28;19990;-81
2022/04/25 05:22:06;;;;;;;;;;;;;;;;;;5038631;28;20054;-81
2022/04/25 05:24:32;;;;;;;;;;;;;;;;;;5040811;28;19939;-80
2022/04/25 05:26:58;;;;;;;;;;;;;;;;;;4988290;28;1527502;-80
2022/04/25 05:29:24;;;;;;;;;;;;;;;;;;5040908;28;19971;-82
2022/04/25 05:31:50;;;;;;;;;;;;;;;;;;5040910;28;19913;-81
2022/04/25 05:34:18;;;;;;;;;;;;;;;;;;5027951;28;20368;-80
2022/04/25 05:36:53;;;;;;;;;;;;;;;;;;5041527;28;20386;-82
2022/04/25 05:39:28;;;;;;;;;;;;;;;;;;5052397;28;19917;-80
2022/04/25 05:41:55;;;;;;;;;;;;;;;;;;5038101;28;20307;-80
2022/04/25 05:44:21;;;;;;;;;;;;;;;;;;5022729;28;19948;-79
2022/04/25 05:46:47;;;;;;;;;;;;;;;;;;5045588;28;19956;-80
2022/04/25 05:51:58;;;;;;;;;;;;;;;;;;5041029;28;19967;-81
2022/04/25 05:54:24;;;;;;;;;;;;;;;;;;5039172;28;19956;-79
2022/04/25 05:56:51;;;;;;;;;;;;;;;;;;5058785;28;19956;-82
2022/04/25 05:59:18;;;;;;;;;;;;;;;;;;5043005;28;19921;-81
2022/04/25 06:01:44;;;;;;;;;;;;;;;;;;5043042;28;19956;-81
2022/04/25 06:04:11;;;;;;;;;;;;;;;;;;5033479;28;19949;-81
2022/04/25 06:06:40;;;;;;;;;;;;;;;;;;5038157;28;19921;-81
2022/04/25 06:09:09;;;;;;;;;;;;;;;;;;5034582;28;19917;-81
2022/04/25 06:11:35;;;;;;;;;;;;;;;;;;5042577;28;19913;-80
2022/04/25 06:14:02;;;;;;;;;;;;;;;;;;5040617;28;20151;-80
2022/04/25 06:16:28;;;;;;;;;;;;;;;;;;5042683;28;19952;-80
2022/04/25 06:18:54;;;;;;;;;;;;;;;;;;5039865;28;19960;-82
2022/04/25 06:21:20;;;;;;;;;;;;;;;;;;5048347;28;19924;-79
2022/04/25 06:23:47;;;;;;;;;;;;;;;;;;5045151;28;20034;-80
2022/04/25 06:26:13;;;;;;;;;;;;;;;;;;5016201;28;20502;-81
2022/04/25 06:28:41;;;;;;;;;;;;;;;;;;5033786;28;19957;-81
2022/04/25 06:31:07;;;;;;;;;;;;;;;;;;5036709;28;19917;-81
2022/04/25 06:33:33;;;;;;;;;;;;;;;;;;5040757;28;19958;-81
2022/04/25 06:35:59;;;;;;;;;;;;;;;;;;5042696;28;20003;-81
2022/04/25 06:38:26;;;;;;;;;;;;;;;;;;5031811;28;20408;-81
2022/04/25 06:40:52;;;;;;;;;;;;;;;;;;5039380;28;19956;-80
2022/04/25 06:43:18;;;;;;;;;;;;;;;;;;5016555;28;19940;-82
2022/04/25 06:45:44;;;;;;;;;;;;;;;;;;5055248;28;19941;-81
2022/04/25 06:48:11;;;;;;;;;;;;;;;;;;5037612;28;19967;-80
2022/04/25 06:50:37;;;;;;;;;;;;;;;;;;5051512;28;20472;-81
2022/04/25 06:53:03;;;;;;;;;;;;;;;;;;5033845;28;19948;-81
2022/04/25 06:55:29;;;;;;;;;;;;;;;;;;5040048;28;19975;-81
2022/04/25 06:57:56;;;;;;;;;;;;;;;;;;5054455;28;19960;-81
2022/04/25 07:00:24;;;;;;;;;;;;;;;;;;5036652;28;20429;-80
2022/04/25 07:02:51;;;;;;;;;;;;;;;;;;5037156;28;19921;-82
2022/04/25 07:05:17;;;;;;;;;;;;;;;;;;5031398;28;19952;-83
2022/04/25 07:07:44;;;;;;;;;;;;;;;;;;5035537;28;19941;-82
2022/04/25 07:10:10;;;;;;;;;;;;;;;;;;5039573;28;19924;-81
2022/04/25 07:12:37;;;;;;;;;;;;;;;;;;5038791;28;19972;-82
2022/04/25 07:15:03;;;;;;;;;;;;;;;;;;5039117;28;19952;-83
2022/04/25 07:17:30;;;;;;;;;;;;;;;;;;5035652;28;20313;-84
2022/04/25 07:19:56;;;;;;;;;;;;;;;;;;5041442;28;19944;-82
2022/04/25 07:30:36;;;;;;;;;;;;;;;;;;5036735;28;20388;-81
2022/04/25 07:33:02;;;;;;;;;;;;;;;;;;5036538;28;19956;-80
2022/04/25 07:35:29;;;;;;;;;;;;;;;;;;5043231;28;20049;-81
2022/04/25 07:37:55;;;;;;;;;;;;;;;;;;5041682;28;20636;-80
2022/04/25 07:40:21;;;;;;;;;;;;;;;;;;5036128;28;20018;-80
2022/04/25 07:42:48;;;;;;;;;;;;;;;;;;5031906;28;20031;-81
2022/04/25 07:45:14;;;;;;;;;;;;;;;;;;5032957;28;19957;-81
2022/04/25 07:47:43;;;;;;;;;;;;;;;;;;5038185;28;20317;-81
2022/04/25 07:50:09;;;;;;;;;;;;;;;;;;5024773;28;20034;-81
2022/04/25 07:52:35;;;;;;;;;;;;;;;;;;5034577;28;20974;-80
2022/04/25 07:55:02;;;;;;;;;;;;;;;;;;5036553;28;19924;-80
2022/04/25 07:57:29;;;;;;;;;;;;;;;;;;5036926;28;20032;-81
2022/04/25 07:59:56;;;;;;;;;;;;;;;;;;5040427;28;19948;-81
2022/04/25 08:02:25;;;;;;;;;;;;;;;;;;5017551;28;20012;-81
2022/04/25 08:04:51;;;;;;;;;;;;;;;;;;5035470;28;19952;-81
2022/04/25 08:07:18;;;;;;;;;;;;;;;;;;5039909;28;19925;-83
2022/04/25 08:09:44;;;;;;;;;;;;;;;;;;5030027;28;19975;-81
2022/04/25 08:20:28;;;;;;;;;;;;;;;;;;5038916;28;19913;-80
2022/04/25 08:22:54;;;;;;;;;;;;;;;;;;5046870;28;20395;-80
2022/04/25 08:25:20;;;;;;;;;;;;;;;;;;5044614;28;19966;-81
2022/04/25 08:27:50;;;;;;;;;;;;;;;;;;5046569;28;19982;-81
2022/04/25 08:30:17;;;;;;;;;;;;;;;;;;5042458;28;19944;-81
2022/04/25 08:32:45;;;;;;;;;;;;;;;;;;5048044;28;20041;-81
2022/04/25 08:35:14;;;;;;;;;;;;;;;;;;5044846;28;19994;-80
2022/04/25 08:37:41;;;;;;;;;;;;;;;;;;5035657;28;19956;-81
2022/04/25 08:40:07;;;;;;;;;;;;;;;;;;5034158;28;20017;-81
2022/04/25 08:42:33;;;;;;;;;;;;;;;;;;5044158;28;19955;-79
2022/04/25 08:44:59;;;;;;;;;;;;;;;;;;5037601;28;19964;-79
2022/04/25 08:47:25;;;;;;;;;;;;;;;;;;5041669;28;19964;-81
2022/04/25 08:49:52;;;;;;;;;;;;;;;;;;5057535;28;20391;-80
2022/04/25 08:52:18;;;;;;;;;;;;;;;;;;5038445;28;19960;-80
2022/04/25 08:54:44;;;;;;;;;;;;;;;;;;5046743;28;19949;-80
2022/04/25 08:57:10;;;;;;;;;;;;;;;;;;5043168;28;19916;-81
2022/04/25 08:59:36;;;;;;;;;;;;;;;;;;5036623;28;19964;-81
2022/04/25 09:02:03;;;;;;;;;;;;;;;;;;5039906;28;19951;-81
2022/04/25 09:04:29;;;;;;;;;;;;;;;;;;5037172;28;19960;-81
2022/04/25 09:06:55;;;;;;;;;;;;;;;;;;5037631;28;19960;-81
2022/04/25 09:09:21;;;;;;;;;;;;;;;;;;5016714;28;19972;-81
2022/04/25 09:14:32;;;;;;;;;;;;;;;;;;5036879;28;19974;-81
2022/04/25 09:16:58;;;;;;;;;;;;;;;;;;5038878;28;19948;-80
2022/04/25 09:19:25;;;;;;;;;;;;;;;;;;5037190;28;19957;-80
2022/04/25 09:21:51;;;;;;;;;;;;;;;;;;5036212;28;19961;-81
2022/04/25 09:24:17;;;;;;;;;;;;;;;;;;5035978;28;19921;-79
2022/04/25 09:26:44;;;;;;;;;;;;;;;;;;5034133;28;19959;-81
2022/04/25 09:29:10;;;;;;;;;;;;;;;;;;5033588;28;19929;-80
2022/04/25 09:31:37;;;;;;;;;;;;;;;;;;5033379;28;19948;-80
2022/04/25 09:34:03;;;;;;;;;;;;;;;;;;5033587;28;20581;-81
2022/04/25 09:36:31;;;;;;;;;;;;;;;;;;5040128;28;19964;-81
2022/04/25 09:38:57;;;;;;;;;;;;;;;;;;5040174;28;20534;-80
2022/04/25 09:41:23;;;;;;;;;;;;;;;;;;5037267;28;19960;-85
2022/04/25 09:43:49;;;;;;;;;;;;;;;;;;5035631;28;20325;-81
2022/04/25 09:46:16;;;;;;;;;;;;;;;;;;5051451;28;19956;-81
2022/04/25 09:48:43;;;;;;;;;;;;;;;;;;5061276;28;20442;-80
2022/04/25 09:51:11;;;;;;;;;;;;;;;;;;5035000;28;19948;-79
2022/04/25 09:53:38;;;;;;;;;;;;;;;;;;5023654;28;19959;-78
2022/04/25 09:56:04;;;;;;;;;;;;;;;;;;5051889;28;19956;-78
2022/04/25 09:58:30;;;;;;;;;;;;;;;;;;5043490;28;19952;-79
2022/04/25 10:00:56;;;;;;;;;;;;;;;;;;5076092;28;20341;-80
2022/04/25 10:03:22;;;;;;;;;;;;;;;;;;5032283;28;19951;-78
2022/04/25 10:05:49;;;;;;;;;;;;;;;;;;5045645;28;20380;-79
2022/04/25 10:08:15;;;;;;;;;;;;;;;;;;5038887;28;19921;-78
2022/04/25 10:10:41;;;;;;;;;;;;;;;;;;5046067;28;20409;-79
2022/04/25 10:13:07;;;;;;;;;;;;;;;;;;5031655;28;19960;-79
2022/04/25 10:15:33;;;;;;;;;;;;;;;;;;5055470;28;19956;-80
2022/04/25 10:18:00;;;;;;;;;;;;;;;;;;5043993;28;20023;-80
2022/04/25 10:20:26;;;;;;;;;;;;;;;;;;5064032;28;19944;-80
2022/04/25 10:22:52;;;;;;;;;;;;;;;;;;5044031;28;20362;-80
2022/04/25 10:25:18;;;;;;;;;;;;;;;;;;5051526;28;19956;-81
2022/04/25 10:27:44;;;;;;;;;;;;;;;;;;5049458;28;20332;-80
2022/04/25 10:30:11;;;;;;;;;;;;;;;;;;5046631;28;19913;-82
2022/04/25 10:32:37;;;;;;;;;;;;;;;;;;5034765;28;19945;-81
2022/04/25 10:35:06;;;;;;;;;;;;;;;;;;5045320;28;19967;-80
2022/04/25 10:37:33;;;;;;;;;;;;;;;;;;5067461;28;19955;-81
2022/04/25 10:39:59;;;;;;;;;;;;;;;;;;5033321;28;19956;-79
2022/04/25 10:45:10;;;;;;;;;;;;;;;;;;5042546;28;19921;-81
2022/04/25 10:47:36;;;;;;;;;;;;;;;;;;5002749;28;19916;-80
2022/04/25 10:50:02;;;;;;;;;;;;;;;;;;5045310;28;19994;-81
2022/04/25 10:52:29;;;;;;;;;;;;;;;;;;5034263;28;19959;-80
2022/04/25 10:55:00;;;;;;;;;;;;;;;;;;5057820;28;20019;-81
2022/04/25 10:57:26;;;;;;;;;;;;;;;;;;5043058;28;20489;-81
2022/04/25 10:59:53;;;;;;;;;;;;;;;;;;5044040;28;20472;-80
2022/04/25 11:02:19;;;;;;;;;;;;;;;;;;5039646;28;19997;-80
2022/04/25 11:04:45;;;;;;;;;;;;;;;;;;5036805;28;19960;-80
2022/04/25 11:07:11;;;;;;;;;;;;;;;;;;5046460;28;19944;-80
2022/04/25 11:09:40;;;;;;;;;;;;;;;;;;5042343;28;19948;-80
2022/04/25 11:12:07;;;;;;;;;;;;;;;;;;5047588;28;20013;-80
2022/04/25 11:14:33;;;;;;;;;;;;;;;;;;5017509;28;19952;-80
2022/04/25 11:16:59;;;;;;;;;;;;;;;;;;5042628;28;19962;-80
2022/04/25 11:19:25;;;;;;;;;;;;;;;;;;5035106;28;19960;-80
2022/04/25 11:21:55;;;;;;;;;;;;;;;;;;5037147;28;20329;-80
2022/04/25 11:24:22;;;;;;;;;;;;;;;;;;5053573;28;19949;-79
2022/04/25 11:26:48;;;;;;;;;;;;;;;;;;5042368;28;20053;-80
2022/04/25 11:29:14;;;;;;;;;;;;;;;;;;5042529;28;19971;-79
2022/04/25 11:31:40;;;;;;;;;;;;;;;;;;5055242;28;19963;-80
2022/04/25 11:34:13;;;;;;;;;;;;;;;;;;5058755;28;20000;-80
2022/04/25 11:36:40;;;;;;;;;;;;;;;;;;5038320;28;19948;-79
2022/04/25 11:41:51;;;;;;;;;;;;;;;;;;5044194;28;20492;-79
2022/04/25 11:44:17;;;;;;;;;;;;;;;;;;5048556;28;19921;-79
2022/04/25 11:46:44;;;;;;;;;;;;;;;;;;5023918;28;19957;-79
2022/04/25 11:49:10;;;;;;;;;;;;;;;;;;5051701;28;20385;-80
2022/04/25 11:51:39;;;;;;;;;;;;;;;;;;5043556;28;19921;-79
2022/04/25 11:54:06;;;;;;;;;;;;;;;;;;5050756;28;19948;-79
2022/04/25 11:56:32;;;;;;;;;;;;;;;;;;5049259;28;19960;-79
2022/04/25 11:58:58;;;;;;;;;;;;;;;;;;5051510;28;19960;-79
2022/04/25 12:01:24;;;;;;;;;;;;;;;;;;5041929;28;19948;-79
2022/04/25 12:03:50;;;;;;;;;;;;;;;;;;5044977;28;19983;-79
2022/04/25 12:06:17;;;;;;;;;;;;;;;;;;5043879;28;20314;-79
2022/04/25 12:17:00;;;;;;;;;;;;;;;;;;5052469;28;20273;-79
2022/04/25 12:19:26;;;;;;;;;;;;;;;;;;5044282;28;20017;-79
2022/04/25 12:21:53;;;;;;;;;;;;;;;;;;5036945;28;20460;-78
2022/04/25 12:24:19;;;;;;;;;;;;;;;;;;5042033;28;19963;-80
2022/04/25 12:26:45;;;;;;;;;;;;;;;;;;5066857;28;20407;-80
2022/04/25 12:29:12;;;;;;;;;;;;;;;;;;5049615;28;20018;-80
2022/04/25 12:31:38;;;;;;;;;;;;;;;;;;5037065;28;20002;-80
2022/04/25 12:34:04;;;;;;;;;;;;;;;;;;5045910;28;21831;-80
2022/04/25 12:36:32;;;;;;;;;;;;;;;;;;5034666;28;19983;-81
2022/04/25 12:38:58;;;;;;;;;;;;;;;;;;5048896;28;19956;-79
2022/04/25 12:41:24;;;;;;;;;;;;;;;;;;5041471;28;20369;-78
2022/04/25 12:43:50;;;;;;;;;;;;;;;;;;5031821;28;19979;-79
2022/04/25 12:46:17;;;;;;;;;;;;;;;;;;5049472;28;19916;-79
2022/04/25 12:48:44;;;;;;;;;;;;;;;;;;5047812;28;19916;-78
2022/04/25 12:51:10;;;;;;;;;;;;;;;;;;5047927;28;20384;-79
2022/04/25 12:53:36;;;;;;;;;;;;;;;;;;5065123;28;20088;-79
2022/04/25 12:56:02;;;;;;;;;;;;;;;;;;5032983;28;20447;-79
2022/04/25 12:58:28;;;;;;;;;;;;;;;;;;5045220;28;19956;-80
2022/04/25 13:00:57;;;;;;;;;;;;;;;;;;5057963;28;19968;-78
2022/04/25 13:03:25;;;;;;;;;;;;;;;;;;5059247;28;19940;-79
2022/04/25 13:05:52;;;;;;;;;;;;;;;;;;5027589;28;20376;-79
2022/04/25 13:08:18;;;;;;;;;;;;;;;;;;5061519;28;20548;-79
2022/04/25 13:10:44;;;;;;;;;;;;;;;;;;5044211;28;19922;-79
2022/04/25 13:13:11;;;;;;;;;;;;;;;;;;5050420;28;19963;-79
2022/04/25 13:15:38;;;;;;;;;;;;;;;;;;5035415;28;20354;-79
2022/04/25 13:18:04;;;;;;;;;;;;;;;;;;5045548;28;19956;-79
2022/04/25 13:20:31;;;;;;;;;;;;;;;;;;5052756;28;20318;-79
2022/04/25 13:22:59;;;;;;;;;;;;;;;;;;5051753;28;19948;-79
2022/04/25 13:25:25;;;;;;;;;;;;;;;;;;5060490;28;20016;-79
2022/04/25 13:27:52;;;;;;;;;;;;;;;;;;5048104;28;20339;-78
2022/04/25 13:30:18;;;;;;;;;;;;;;;;;;5051106;28;19956;-79
2022/04/25 13:32:45;;;;;;;;;;;;;;;;;;5051128;28;19963;-79
2022/04/25 13:35:14;;;;;;;;;;;;;;;;;;5043939;28;20025;-79
2022/04/25 13:37:43;;;;;;;;;;;;;;;;;;5046243;28;19920;-80
2022/04/25 13:40:10;;;;;;;;;;;;;;;;;;5036804;28;20381;-79
2022/04/25 13:42:36;;;;;;;;;;;;;;;;;;5037229;28;20418;-80
2022/04/25 13:45:03;;;;;;;;;;;;;;;;;;5051973;28;20006;-79
2022/04/25 13:47:29;;;;;;;;;;;;;;;;;;5042063;28;19944;-79
2022/04/25 13:49:55;;;;;;;;;;;;;;;;;;5040372;28;19916;-79
2022/04/25 13:52:21;;;;;;;;;;;;;;;;;;5046570;28;19974;-78
2022/04/25 13:54:48;;;;;;;;;;;;;;;;;;5044468;28;19955;-80
2022/04/25 13:57:14;;;;;;;;;;;;;;;;;;5042138;28;19924;-79
2022/04/25 13:59:40;;;;;;;;;;;;;;;;;;5058344;28;20361;-79
2022/04/25 14:04:51;;;;;;;;;;;;;;;;;;5040243;28;19961;-78
2022/04/25 14:07:17;;;;;;;;;;;;;;;;;;5052422;28;19920;-77
2022/04/25 14:09:44;;;;;;;;;;;;;;;;;;5035411;28;20369;-76
2022/04/25 14:12:12;;;;;;;;;;;;;;;;;;5039540;28;19990;-76
2022/04/25 14:14:38;;;;;;;;;;;;;;;;;;5040873;28;19956;-78
2022/04/25 14:17:04;;;;;;;;;;;;;;;;;;5047494;28;19986;-77
2022/04/25 14:19:31;;;;;;;;;;;;;;;;;;5041794;28;19948;-77
2022/04/25 14:21:58;;;;;;;;;;;;;;;;;;5032116;28;19933;-77
2022/04/25 14:24:24;;;;;;;;;;;;;;;;;;5046080;28;19964;-77
2022/04/25 14:26:52;;;;;;;;;;;;;;;;;;5046237;28;19956;-76
2022/04/25 14:29:18;;;;;;;;;;;;;;;;;;5034107;28;20013;-77
2022/04/25 14:31:44;;;;;;;;;;;;;;;;;;5040885;28;19958;-76
2022/04/25 14:34:10;;;;;;;;;;;;;;;;;;5042916;28;19956;-76
2022/04/25 14:36:37;;;;;;;;;;;;;;;;;;5037984;28;19967;-77
2022/04/25 14:39:03;;;;;;;;;;;;;;;;;;5038225;28;20536;-76
2022/04/25 14:41:29;;;;;;;;;;;;;;;;;;5037295;28;20027;-76
2022/04/25 14:43:55;;;;;;;;;;;;;;;;;;5038907;28;19936;-77
2022/04/25 14:46:21;;;;;;;;;;;;;;;;;;5040415;28;20045;-78
2022/04/25 14:48:48;;;;;;;;;;;;;;;;;;5032919;28;20188;-80
2022/04/25 14:56:44;;;;;;;;;;;;;;;;;;5038632;28;19956;-78
2022/04/25 14:59:11;;;;;;;;;;;;;;;;;;5039017;28;20324;-78
2022/04/25 15:01:37;;;;;;;;;;;;;;;;;;5038781;28;21719;-77
2022/04/25 15:04:04;;;;;;;;;;;;;;;;;;5040905;28;19927;-76
2022/04/25 15:06:30;;;;;;;;;;;;;;;;;;5036635;28;19976;-77
2022/04/25 15:08:56;;;;;;;;;;;;;;;;;;5035011;28;19959;-75
2022/04/25 15:11:22;;;;;;;;;;;;;;;;;;5036226;28;19921;-77
2022/04/25 15:13:48;;;;;;;;;;;;;;;;;;5039528;28;19948;-77
2022/04/25 15:16:15;;;;;;;;;;;;;;;;;;5033232;28;19964;-76
2022/04/25 15:18:41;;;;;;;;;;;;;;;;;;5048555;28;19956;-76
2022/04/25 15:21:11;;;;;;;;;;;;;;;;;;5042726;28;19953;-77
2022/04/25 15:23:38;;;;;;;;;;;;;;;;;;5041410;28;19963;-77
2022/04/25 15:26:04;;;;;;;;;;;;;;;;;;5045703;28;19964;-75
2022/04/25 15:28:30;;;;;;;;;;;;;;;;;;5041907;28;20350;-76
2022/04/25 15:30:56;;;;;;;;;;;;;;;;;;5047537;28;19952;-75
2022/04/25 15:33:22;;;;;;;;;;;;;;;;;;5053634;28;19925;-76
2022/04/25 15:35:49;;;;;;;;;;;;;;;;;;5042131;28;19979;-75
2022/04/25 15:38:15;;;;;;;;;;;;;;;;;;5057351;28;20287;-75
2022/04/25 15:40:42;;;;;;;;;;;;;;;;;;5054112;28;19952;-75
2022/04/25 15:43:08;;;;;;;;;;;;;;;;;;5054046;28;19956;-75
2022/04/25 15:45:35;;;;;;;;;;;;;;;;;;5049137;28;19956;-77
2022/04/25 15:48:02;;;;;;;;;;;;;;;;;;5050849;28;20325;-76
2022/04/25 15:50:30;;;;;;;;;;;;;;;;;;5050892;28;19940;-77
2022/04/25 15:52:56;;;;;;;;;;;;;;;;;;5056508;28;19952;-77
2022/04/25 15:58:07;;;;;;;;;;;;;;;;;;5042783;28;19961;-75
2022/04/25 16:00:33;;;;;;;;;;;;;;;;;;5042036;28;19956;-77
2022/04/25 16:02:59;;;;;;;;;;;;;;;;;;5057684;28;19957;-78
2022/04/25 16:05:26;;;;;;;;;;;;;;;;;;5041068;28;19952;-77
2022/04/25 16:07:52;;;;;;;;;;;;;;;;;;5042886;28;19982;-76
2022/04/25 16:10:18;;;;;;;;;;;;;;;;;;5044574;28;19956;-75
2022/04/25 16:12:47;;;;;;;;;;;;;;;;;;5044810;28;19955;-75
2022/04/25 16:15:14;;;;;;;;;;;;;;;;;;5047797;28;19955;-75
2022/04/25 16:17:40;;;;;;;;;;;;;;;;;;5051145;28;19948;-76
2022/04/25 16:20:07;;;;;;;;;;;;;;;;;;5046479;28;19965;-76
2022/04/25 16:22:33;;;;;;;;;;;;;;;;;;5042769;28;19964;-75
2022/04/25 16:25:02;;;;;;;;;;;;;;;;;;5048540;28;19956;-75
2022/04/25 16:27:30;;;;;;;;;;;;;;;;;;5039869;28;19953;-75
2022/04/25 16:29:56;;;;;;;;;;;;;;;;;;5045199;28;20014;-75
2022/04/25 16:32:22;;;;;;;;;;;;;;;;;;5058200;28;19921;-79
2022/04/25 16:34:48;;;;;;;;;;;;;;;;;;5039757;28;19949;-76
2022/04/25 16:37:14;;;;;;;;;;;;;;;;;;5049266;28;20005;-75
2022/04/25 16:39:42;;;;;;;;;;;;;;;;;;5038453;28;20411;-75
2022/04/25 16:42:09;;;;;;;;;;;;;;;;;;5040316;28;19955;-74
2022/04/25 16:44:35;;;;;;;;;;;;;;;;;;5040818;28;20497;-75
2022/04/25 16:47:02;;;;;;;;;;;;;;;;;;5034186;28;20333;-77
2022/04/25 16:49:28;;;;;;;;;;;;;;;;;;5037255;28;19952;-75
2022/04/25 16:51:54;;;;;;;;;;;;;;;;;;5035443;28;20078;-75
2022/04/25 16:54:22;;;;;;;;;;;;;;;;;;5043707;28;19960;-75
2022/04/25 16:56:48;;;;;;;;;;;;;;;;;;5036834;28;19959;-76
2022/04/25 16:59:14;;;;;;;;;;;;;;;;;;5043031;28;19948;-75
2022/04/25 17:01:40;;;;;;;;;;;;;;;;;;5061977;28;19925;-77
2022/04/25 17:04:07;;;;;;;;;;;;;;;;;;5055284;28;19948;-75
2022/04/25 17:06:33;;;;;;;;;;;;;;;;;;5038778;28;19961;-75
2022/04/25 17:08:59;;;;;;;;;;;;;;;;;;5033793;28;20031;-75
2022/04/25 17:11:25;;;;;;;;;;;;;;;;;;5054868;28;19956;-76
2022/04/25 17:13:51;;;;;;;;;;;;;;;;;;5057656;28;19948;-76
2022/04/25 17:16:18;;;;;;;;;;;;;;;;;;5037238;28;20365;-75
2022/04/25 17:18:44;;;;;;;;;;;;;;;;;;5038175;28;19959;-74
2022/04/25 17:21:10;;;;;;;;;;;;;;;;;;5052407;28;19944;-74
2022/04/25 17:23:36;;;;;;;;;;;;;;;;;;5042714;28;19955;-76
2022/04/25 17:26:02;;;;;;;;;;;;;;;;;;5045172;28;19975;-75
2022/04/25 17:28:29;;;;;;;;;;;;;;;;;;5039396;28;19969;-74
2022/04/25 17:30:55;;;;;;;;;;;;;;;;;;5051674;28;19948;-75
2022/04/25 17:36:09;;;;;;;;;;;;;;;;;;5051050;28;21285;-76
